createdAt,value
2023-05-01T00:00:58.650Z,67.35
2023-05-01T00:01:58.612Z,68.64
2023-05-01T00:02:58.745Z,69.77
2023-05-01T00:03:58.882Z,69.77
2023-05-01T00:04:58.700Z,68.80
2023-05-01T00:05:58.634Z,67.84
2023-05-01T00:06:58.576Z,67.51
2023-05-01T00:07:58.611Z,69.61
2023-05-01T00:08:58.550Z,68.32
2023-05-01T00:09:58.856Z,67.68
2023-05-01T00:10:58.548Z,67.35
2023-05-01T00:11:58.547Z,66.55
2023-05-01T00:12:58.516Z,66.87
2023-05-01T00:13:58.497Z,65.90
2023-05-01T00:14:58.488Z,66.55
2023-05-01T00:15:58.526Z,66.87
2023-05-01T00:16:58.582Z,67.84
2023-05-01T00:17:58.597Z,68.16
2023-05-01T00:18:58.458Z,67.35
2023-05-01T00:19:58.747Z,67.03
2023-05-01T00:20:58.436Z,67.68
2023-05-01T00:21:58.414Z,68.16
2023-05-01T00:22:58.405Z,67.35
2023-05-01T00:23:58.398Z,68.00
2023-05-01T00:24:58.401Z,67.51
2023-05-01T00:25:58.396Z,67.68
2023-05-01T00:26:58.377Z,67.68
2023-05-01T00:27:58.383Z,68.64
2023-05-01T00:28:58.407Z,68.16
2023-05-01T00:29:58.598Z,68.80
2023-05-01T00:30:58.346Z,69.61
2023-05-01T00:31:58.373Z,69.93
2023-05-01T00:32:58.356Z,70.74
2023-05-01T00:33:58.300Z,70.42
2023-05-01T00:34:58.292Z,70.74
2023-05-01T00:35:58.290Z,70.58
2023-05-01T00:36:58.268Z,70.90
2023-05-01T00:37:58.298Z,70.74
2023-05-01T00:38:58.249Z,70.74
2023-05-01T00:39:58.666Z,71.06
2023-05-01T00:40:58.275Z,71.38
2023-05-01T00:41:58.217Z,70.74
2023-05-01T00:42:58.204Z,68.00
2023-05-01T00:43:58.205Z,67.19
2023-05-01T00:44:58.204Z,66.71
2023-05-01T00:45:58.270Z,67.35
2023-05-01T00:46:58.205Z,68.48
2023-05-01T00:47:58.228Z,67.68
2023-05-01T00:48:58.147Z,66.87
2023-05-01T00:49:58.255Z,67.19
2023-05-01T00:50:58.139Z,65.58
2023-05-01T00:51:58.140Z,64.78
2023-05-01T00:52:58.106Z,66.87
2023-05-01T00:53:58.095Z,66.55
2023-05-01T00:54:58.091Z,66.23
2023-05-01T00:55:58.091Z,66.71
2023-05-01T00:56:58.074Z,68.64
2023-05-01T00:57:58.060Z,65.90
2023-05-01T00:58:58.056Z,65.58
2023-05-01T00:59:58.250Z,66.06
2023-05-01T01:00:58.047Z,65.58
2023-05-01T01:01:58.015Z,65.58
2023-05-01T01:02:58.064Z,66.55
2023-05-01T01:03:58.017Z,65.26
2023-05-01T01:04:58.319Z,67.03
2023-05-01T01:05:58.036Z,67.03
2023-05-01T01:06:57.975Z,67.03
2023-05-01T01:07:57.955Z,66.06
2023-05-01T01:08:57.937Z,65.58
2023-05-01T01:09:58.202Z,66.39
2023-05-01T01:10:57.931Z,67.35
2023-05-01T01:11:57.919Z,67.84
2023-05-01T01:12:57.906Z,66.87
2023-05-01T01:13:57.896Z,66.71
2023-05-01T01:14:57.885Z,68.48
2023-05-01T01:15:57.906Z,68.32
2023-05-01T01:16:57.892Z,66.87
2023-05-01T01:17:57.860Z,68.16
2023-05-01T01:18:57.891Z,68.16
2023-05-01T01:19:58.017Z,65.26
2023-05-01T01:20:57.861Z,68.32
2023-05-01T01:21:57.812Z,68.80
2023-05-01T01:22:57.883Z,68.16
2023-05-01T01:23:57.866Z,65.26
2023-05-01T01:24:57.780Z,62.36
2023-05-01T01:25:57.958Z,65.26
2023-05-01T01:26:57.759Z,66.06
2023-05-01T01:27:57.750Z,66.87
2023-05-01T01:28:57.751Z,66.39
2023-05-01T01:29:57.970Z,67.68
2023-05-01T01:30:57.771Z,67.19
2023-05-01T01:31:57.716Z,67.35
2023-05-01T01:32:57.761Z,67.84
2023-05-01T01:33:57.689Z,67.68
2023-05-01T01:34:57.678Z,67.51
2023-05-01T01:35:57.684Z,67.51
2023-05-01T01:36:57.663Z,67.03
2023-05-01T01:37:57.666Z,67.68
2023-05-01T01:38:57.641Z,67.68
2023-05-01T01:39:57.886Z,67.51
2023-05-01T01:40:57.651Z,67.84
2023-05-01T01:41:57.613Z,67.19
2023-05-01T01:42:57.602Z,67.19
2023-05-01T01:43:57.596Z,67.35
2023-05-01T01:44:57.584Z,66.71
2023-05-01T01:45:57.592Z,66.23
2023-05-01T01:46:57.558Z,66.71
2023-05-01T01:47:57.584Z,66.87
2023-05-01T01:48:57.540Z,65.58
2023-05-01T01:49:57.768Z,66.55
2023-05-01T01:50:57.534Z,66.06
2023-05-01T01:51:57.513Z,66.23
2023-05-01T01:52:57.501Z,66.87
2023-05-01T01:53:57.488Z,66.87
2023-05-01T01:54:58.498Z,66.87
2023-05-01T01:55:57.487Z,66.87
2023-05-01T01:56:57.461Z,68.64
2023-05-01T01:57:57.456Z,67.84
2023-05-01T01:58:57.452Z,66.06
2023-05-01T01:59:57.789Z,66.55
2023-05-01T02:00:57.434Z,65.74
2023-05-01T02:01:57.548Z,66.06
2023-05-01T02:02:57.525Z,66.87
2023-05-01T02:03:57.495Z,66.06
2023-05-01T02:04:57.436Z,67.03
2023-05-01T02:05:57.389Z,67.35
2023-05-01T02:06:57.368Z,66.87
2023-05-01T02:07:57.374Z,66.87
2023-05-01T02:08:57.352Z,64.94
2023-05-01T02:09:57.573Z,66.55
2023-05-01T02:10:58.860Z,66.06
2023-05-01T02:11:57.325Z,66.71
2023-05-01T02:12:57.315Z,66.23
2023-05-01T02:13:57.327Z,67.03
2023-05-01T02:14:57.304Z,67.19
2023-05-01T02:15:57.390Z,67.19
2023-05-01T02:16:57.269Z,67.35
2023-05-01T02:17:57.311Z,67.84
2023-05-01T02:18:57.263Z,65.74
2023-05-01T02:19:57.471Z,67.03
2023-05-01T02:20:57.256Z,66.55
2023-05-01T02:21:57.240Z,66.71
2023-05-01T02:22:57.215Z,66.55
2023-05-01T02:23:57.210Z,65.74
2023-05-01T02:24:57.217Z,67.19
2023-05-01T02:25:57.211Z,67.03
2023-05-01T02:26:57.195Z,66.06
2023-05-01T02:27:57.166Z,67.03
2023-05-01T02:28:57.153Z,67.84
2023-05-01T02:29:57.387Z,66.71
2023-05-01T02:30:57.157Z,67.84
2023-05-01T02:31:57.316Z,68.16
2023-05-01T02:32:57.153Z,67.84
2023-05-01T02:33:57.112Z,67.19
2023-05-01T02:34:57.094Z,66.06
2023-05-01T02:35:57.097Z,65.42
2023-05-01T02:36:57.088Z,66.71
2023-05-01T02:37:57.067Z,66.23
2023-05-01T02:38:57.071Z,66.71
2023-05-01T02:39:57.245Z,66.55
2023-05-01T02:40:57.155Z,65.58
2023-05-01T02:41:57.021Z,67.03
2023-05-01T02:42:57.029Z,66.87
2023-05-01T02:43:57.008Z,67.03
2023-05-01T02:44:57.006Z,65.90
2023-05-01T02:45:57.020Z,66.55
2023-05-01T02:46:57.065Z,67.03
2023-05-01T02:47:57.024Z,66.23
2023-05-01T02:48:56.958Z,66.55
2023-05-01T02:49:57.161Z,66.71
2023-05-01T02:50:56.951Z,66.55
2023-05-01T02:51:56.943Z,66.71
2023-05-01T02:52:56.924Z,66.23
2023-05-01T02:53:56.910Z,66.23
2023-05-01T02:54:56.889Z,66.39
2023-05-01T02:55:57.895Z,63.97
2023-05-01T02:56:56.894Z,66.23
2023-05-01T02:57:56.869Z,64.45
2023-05-01T02:58:56.877Z,64.78
2023-05-01T02:59:57.088Z,64.13
2023-05-01T03:00:56.864Z,65.42
2023-05-01T03:01:56.840Z,65.90
2023-05-01T03:02:56.933Z,66.55
2023-05-01T03:03:56.841Z,66.23
2023-05-01T03:04:56.800Z,66.06
2023-05-01T03:05:56.824Z,65.74
2023-05-01T03:06:56.793Z,65.74
2023-05-01T03:07:56.767Z,66.06
2023-05-01T03:08:56.760Z,65.74
2023-05-01T03:09:57.051Z,65.74
2023-05-01T03:10:56.759Z,66.23
2023-05-01T03:11:56.736Z,63.65
2023-05-01T03:12:56.721Z,63.49
2023-05-01T03:13:56.722Z,63.65
2023-05-01T03:14:56.698Z,63.65
2023-05-01T03:15:56.725Z,64.61
2023-05-01T03:16:56.687Z,65.90
2023-05-01T03:17:56.757Z,68.00
2023-05-01T03:18:56.654Z,69.13
2023-05-01T03:19:56.957Z,66.39
2023-05-01T03:20:56.666Z,63.16
2023-05-01T03:21:56.633Z,61.87
2023-05-01T03:22:56.625Z,62.04
2023-05-01T03:23:56.618Z,64.61
2023-05-01T03:24:56.603Z,64.45
2023-05-01T03:25:56.604Z,65.58
2023-05-01T03:26:56.600Z,62.68
2023-05-01T03:27:56.573Z,63.33
2023-05-01T03:28:56.567Z,64.78
2023-05-01T03:29:56.731Z,66.06
2023-05-01T03:30:56.559Z,66.39
2023-05-01T03:31:56.544Z,68.16
2023-05-01T03:32:56.634Z,66.23
2023-05-01T03:33:56.519Z,62.84
2023-05-01T03:34:56.557Z,62.36
2023-05-01T03:35:56.508Z,63.97
2023-05-01T03:36:56.497Z,61.55
2023-05-01T03:37:56.513Z,62.20
2023-05-01T03:38:56.462Z,63.49
2023-05-01T03:39:56.695Z,63.49
2023-05-01T03:40:56.457Z,65.26
2023-05-01T03:41:56.447Z,65.26
2023-05-01T03:42:56.424Z,66.06
2023-05-01T03:43:56.413Z,66.06
2023-05-01T03:44:56.413Z,65.74
2023-05-01T03:45:56.425Z,62.04
2023-05-01T03:46:56.388Z,62.68
2023-05-01T03:47:56.425Z,62.36
2023-05-01T03:48:56.373Z,63.33
2023-05-01T03:49:56.521Z,65.10
2023-05-01T03:50:57.355Z,65.26
2023-05-01T03:51:56.336Z,62.84
2023-05-01T03:52:56.322Z,63.97
2023-05-01T03:53:56.319Z,65.58
2023-05-01T03:54:56.301Z,64.94
2023-05-01T03:55:56.305Z,65.10
2023-05-01T03:56:56.278Z,64.29
2023-05-01T03:57:56.274Z,65.74
2023-05-01T03:58:56.266Z,64.13
2023-05-01T03:59:56.579Z,64.45
2023-05-01T04:00:56.259Z,64.61
2023-05-01T04:01:56.283Z,64.94
2023-05-01T04:02:57.436Z,65.74
2023-05-01T04:03:56.308Z,66.06
2023-05-01T04:04:56.201Z,65.90
2023-05-01T04:05:56.289Z,65.74
2023-05-01T04:06:56.192Z,64.94
2023-05-01T04:07:56.180Z,64.94
2023-05-01T04:08:56.185Z,64.94
2023-05-01T04:09:56.338Z,64.29
2023-05-01T04:10:56.151Z,64.78
2023-05-01T04:11:56.134Z,64.94
2023-05-01T04:12:56.124Z,65.42
2023-05-01T04:13:56.119Z,65.26
2023-05-01T04:14:56.123Z,65.74
2023-05-01T04:15:56.187Z,65.26
2023-05-01T04:16:56.086Z,64.29
2023-05-01T04:17:56.103Z,65.42
2023-05-01T04:18:56.073Z,65.10
2023-05-01T04:19:56.453Z,68.32
2023-05-01T04:20:56.052Z,68.80
2023-05-01T04:21:57.042Z,64.13
2023-05-01T04:22:56.045Z,61.71
2023-05-01T04:23:56.022Z,63.49
2023-05-01T04:24:56.031Z,62.36
2023-05-01T04:25:56.014Z,62.52
2023-05-01T04:26:55.988Z,63.33
2023-05-01T04:27:55.981Z,67.84
2023-05-01T04:28:55.968Z,67.84
2023-05-01T04:29:56.119Z,62.52
2023-05-01T04:30:55.953Z,63.65
2023-05-01T04:31:55.960Z,63.97
2023-05-01T04:32:55.944Z,67.84
2023-05-01T04:33:55.922Z,63.49
2023-05-01T04:34:55.930Z,61.87
2023-05-01T04:35:55.911Z,64.45
2023-05-01T04:36:55.892Z,63.16
2023-05-01T04:37:55.898Z,63.49
2023-05-01T04:38:55.881Z,66.87
2023-05-01T04:39:56.352Z,66.87
2023-05-01T04:40:55.854Z,66.87
2023-05-01T04:41:55.841Z,64.78
2023-05-01T04:42:55.825Z,64.94
2023-05-01T04:43:55.825Z,65.26
2023-05-01T04:44:55.820Z,64.29
2023-05-01T04:45:55.818Z,65.90
2023-05-01T04:46:55.804Z,64.29
2023-05-01T04:47:55.828Z,63.81
2023-05-01T04:48:55.780Z,64.13
2023-05-01T04:49:55.967Z,66.39
2023-05-01T04:50:55.764Z,65.58
2023-05-01T04:51:55.732Z,65.26
2023-05-01T04:52:55.746Z,65.58
2023-05-01T04:53:55.735Z,66.71
2023-05-01T04:54:55.714Z,65.58
2023-05-01T04:55:55.733Z,65.90
2023-05-01T04:56:55.692Z,66.23
2023-05-01T04:57:55.687Z,66.55
2023-05-01T04:58:55.687Z,67.68
2023-05-01T04:59:55.961Z,65.10
2023-05-01T05:00:55.665Z,64.45
2023-05-01T05:01:55.700Z,67.19
2023-05-01T05:02:55.704Z,66.87
2023-05-01T05:03:55.691Z,66.71
2023-05-01T05:04:55.616Z,67.35
2023-05-01T05:05:55.617Z,67.51
2023-05-01T05:06:55.622Z,67.35
2023-05-01T05:07:55.584Z,67.19
2023-05-01T05:08:55.573Z,66.71
2023-05-01T05:09:55.848Z,64.45
2023-05-01T05:10:55.565Z,63.16
2023-05-01T05:11:55.551Z,61.71
2023-05-01T05:12:55.552Z,63.49
2023-05-01T05:13:55.530Z,63.00
2023-05-01T05:14:55.523Z,61.87
2023-05-01T05:15:55.566Z,60.75
2023-05-01T05:16:55.541Z,60.91
2023-05-01T05:17:56.755Z,61.71
2023-05-01T05:18:56.480Z,61.23
2023-05-01T05:19:55.662Z,62.04
2023-05-01T05:20:55.473Z,61.39
2023-05-01T05:21:55.449Z,62.20
2023-05-01T05:22:55.443Z,61.55
2023-05-01T05:23:55.435Z,60.91
2023-05-01T05:24:55.420Z,61.39
2023-05-01T05:25:55.433Z,61.39
2023-05-01T05:26:55.396Z,62.04
2023-05-01T05:27:55.426Z,60.59
2023-05-01T05:28:55.377Z,60.59
2023-05-01T05:29:55.553Z,62.52
2023-05-01T05:30:55.529Z,60.91
2023-05-01T05:31:55.373Z,60.42
2023-05-01T05:32:55.397Z,60.91
2023-05-01T05:33:55.326Z,61.39
2023-05-01T05:34:55.318Z,61.07
2023-05-01T05:35:55.322Z,61.39
2023-05-01T05:36:55.304Z,60.75
2023-05-01T05:37:56.284Z,60.75
2023-05-01T05:38:55.281Z,60.42
2023-05-01T05:39:55.541Z,59.46
2023-05-01T05:40:55.252Z,59.94
2023-05-01T05:41:55.259Z,60.26
2023-05-01T05:42:55.237Z,60.75
2023-05-01T05:43:55.234Z,60.10
2023-05-01T05:44:55.226Z,60.75
2023-05-01T05:45:55.223Z,60.75
2023-05-01T05:46:56.216Z,59.46
2023-05-01T05:47:55.216Z,60.10
2023-05-01T05:48:55.179Z,60.42
2023-05-01T05:49:55.335Z,60.42
2023-05-01T05:50:55.184Z,60.42
2023-05-01T05:51:55.159Z,60.10
2023-05-01T05:52:55.135Z,60.59
2023-05-01T05:53:55.159Z,59.62
2023-05-01T05:54:55.115Z,61.71
2023-05-01T05:55:55.112Z,61.87
2023-05-01T05:56:55.107Z,61.07
2023-05-01T05:57:55.101Z,60.59
2023-05-01T05:58:55.076Z,60.10
2023-05-01T05:59:55.482Z,61.39
2023-05-01T06:00:55.057Z,60.26
2023-05-01T06:01:55.068Z,60.75
2023-05-01T06:02:55.256Z,59.78
2023-05-01T06:03:55.058Z,61.23
2023-05-01T06:04:55.010Z,60.59
2023-05-01T06:05:55.118Z,60.91
2023-05-01T06:06:55.121Z,60.59
2023-05-01T06:07:54.988Z,60.10
2023-05-01T06:08:54.972Z,60.10
2023-05-01T06:09:55.267Z,60.42
2023-05-01T06:10:54.985Z,60.10
2023-05-01T06:11:54.963Z,59.78
2023-05-01T06:13:03.022Z,59.94
2023-05-01T06:13:55.926Z,59.94
2023-05-01T06:14:54.929Z,59.94
2023-05-01T06:15:54.967Z,59.30
2023-05-01T06:16:54.905Z,59.62
2023-05-01T06:17:54.931Z,59.94
2023-05-01T06:18:54.872Z,59.30
2023-05-01T06:19:55.130Z,60.26
2023-05-01T06:20:54.854Z,59.94
2023-05-01T06:21:54.852Z,60.91
2023-05-01T06:22:54.839Z,59.62
2023-05-01T06:23:54.834Z,59.62
2023-05-01T06:24:54.870Z,60.10
2023-05-01T06:25:54.855Z,59.94
2023-05-01T06:26:54.846Z,60.59
2023-05-01T06:27:54.793Z,60.59
2023-05-01T06:28:54.770Z,59.62
2023-05-01T06:29:55.008Z,60.26
2023-05-01T06:30:54.801Z,61.07
2023-05-01T06:31:54.804Z,58.65
2023-05-01T06:32:54.824Z,60.42
2023-05-01T06:33:54.725Z,60.42
2023-05-01T06:34:54.709Z,60.75
2023-05-01T06:35:54.717Z,59.78
2023-05-01T06:36:54.700Z,59.94
2023-05-01T06:37:54.680Z,60.59
2023-05-01T06:38:54.669Z,60.10
2023-05-01T06:39:55.188Z,60.91
2023-05-01T06:40:54.646Z,60.42
2023-05-01T06:41:54.651Z,60.42
2023-05-01T06:42:54.637Z,61.39
2023-05-01T06:43:54.619Z,60.10
2023-05-01T06:44:54.604Z,60.91
2023-05-01T06:45:54.597Z,60.26
2023-05-01T06:46:54.630Z,59.94
2023-05-01T06:47:54.660Z,59.30
2023-05-01T06:48:54.584Z,59.78
2023-05-01T06:49:54.699Z,59.46
2023-05-01T06:50:54.545Z,60.59
2023-05-01T06:51:54.552Z,60.42
2023-05-01T06:52:54.537Z,61.39
2023-05-01T06:53:54.521Z,60.26
2023-05-01T06:54:54.514Z,60.59
2023-05-01T06:55:54.501Z,59.30
2023-05-01T06:56:54.500Z,60.75
2023-05-01T06:57:54.487Z,60.10
2023-05-01T06:58:54.467Z,61.23
2023-05-01T06:59:54.629Z,61.23
2023-05-01T07:00:54.530Z,61.23
2023-05-01T07:01:54.479Z,60.10
2023-05-01T07:02:54.478Z,60.10
2023-05-01T07:03:54.413Z,60.42
2023-05-01T07:04:54.399Z,60.91
2023-05-01T07:05:54.392Z,60.26
2023-05-01T07:06:54.415Z,60.42
2023-05-01T07:08:01.125Z,60.10
2023-05-01T07:08:56.366Z,60.59
2023-05-01T07:09:54.664Z,60.75
2023-05-01T07:10:54.343Z,59.94
2023-05-01T07:11:54.348Z,62.20
2023-05-01T07:12:54.324Z,60.75
2023-05-01T07:13:54.323Z,60.42
2023-05-01T07:14:54.359Z,60.42
2023-05-01T07:15:54.631Z,59.46
2023-05-01T07:16:55.385Z,60.75
2023-05-01T07:17:54.325Z,60.42
2023-05-01T07:18:54.261Z,60.10
2023-05-01T07:19:54.412Z,59.94
2023-05-01T07:20:54.239Z,61.23
2023-05-01T07:21:54.237Z,60.91
2023-05-01T07:22:54.219Z,59.62
2023-05-01T07:23:54.207Z,60.91
2023-05-01T07:24:54.188Z,60.26
2023-05-01T07:25:54.186Z,61.23
2023-05-01T07:26:54.192Z,61.23
2023-05-01T07:27:54.194Z,61.07
2023-05-01T07:28:54.167Z,62.36
2023-05-01T07:29:54.431Z,59.30
2023-05-01T07:30:54.136Z,60.42
2023-05-01T07:31:54.194Z,59.94
2023-05-01T07:32:54.158Z,61.23
2023-05-01T07:33:54.307Z,60.42
2023-05-01T07:34:55.110Z,60.26
2023-05-01T07:35:54.075Z,60.91
2023-05-01T07:36:54.084Z,60.26
2023-05-01T07:37:54.055Z,60.10
2023-05-01T07:38:54.049Z,61.71
2023-05-01T07:39:54.240Z,61.07
2023-05-01T07:40:54.032Z,60.26
2023-05-01T07:41:54.030Z,60.42
2023-05-01T07:42:54.657Z,60.75
2023-05-01T07:43:55.001Z,59.78
2023-05-01T07:44:53.995Z,60.42
2023-05-01T07:45:53.999Z,62.04
2023-05-01T07:46:53.978Z,60.75
2023-05-01T07:47:53.975Z,61.07
2023-05-01T07:48:53.999Z,61.71
2023-05-01T07:49:54.082Z,61.39
2023-05-01T07:50:53.918Z,62.20
2023-05-01T07:51:53.927Z,60.26
2023-05-01T07:52:53.917Z,61.39
2023-05-01T07:53:53.901Z,60.42
2023-05-01T07:54:53.884Z,61.23
2023-05-01T07:55:53.872Z,61.55
2023-05-01T07:56:53.882Z,60.59
2023-05-01T07:57:53.856Z,61.71
2023-05-01T07:58:53.850Z,60.42
2023-05-01T07:59:54.013Z,61.39
2023-05-01T08:00:53.832Z,61.39
2023-05-01T08:01:53.906Z,61.71
2023-05-01T08:02:53.972Z,62.36
2023-05-01T08:03:53.882Z,60.42
2023-05-01T08:04:53.975Z,63.33
2023-05-01T08:05:53.773Z,61.07
2023-05-01T08:06:53.896Z,60.59
2023-05-01T08:07:53.754Z,60.42
2023-05-01T08:08:53.755Z,62.04
2023-05-01T08:09:53.807Z,62.20
2023-05-01T08:10:53.722Z,61.23
2023-05-01T08:11:53.738Z,61.39
2023-05-01T08:12:53.709Z,61.07
2023-05-01T08:13:53.694Z,61.39
2023-05-01T08:14:53.700Z,62.04
2023-05-01T08:15:53.703Z,62.84
2023-05-01T08:16:53.680Z,63.00
2023-05-01T08:17:53.758Z,61.23
2023-05-01T08:18:53.667Z,62.36
2023-05-01T08:19:53.774Z,61.39
2023-05-01T08:20:53.627Z,62.52
2023-05-01T08:21:53.634Z,63.00
2023-05-01T08:22:53.616Z,62.52
2023-05-01T08:23:53.605Z,62.36
2023-05-01T08:24:53.599Z,61.23
2023-05-01T08:25:53.593Z,62.20
2023-05-01T08:26:53.587Z,60.91
2023-05-01T08:27:53.572Z,62.84
2023-05-01T08:28:53.556Z,62.36
2023-05-01T08:29:53.575Z,62.04
2023-05-01T08:30:53.546Z,63.97
2023-05-01T08:31:53.563Z,63.33
2023-05-01T08:32:53.588Z,61.55
2023-05-01T08:33:53.501Z,62.04
2023-05-01T08:34:53.496Z,62.52
2023-05-01T08:35:53.496Z,63.81
2023-05-01T08:36:53.487Z,63.97
2023-05-01T08:37:53.550Z,62.52
2023-05-01T08:38:53.457Z,63.16
2023-05-01T08:39:53.452Z,64.78
2023-05-01T08:40:53.483Z,63.00
2023-05-01T08:41:53.429Z,63.49
2023-05-01T08:42:53.413Z,62.52
2023-05-01T08:43:53.402Z,63.00
2023-05-01T08:44:53.405Z,62.52
2023-05-01T08:45:53.379Z,62.36
2023-05-01T08:46:53.409Z,63.81
2023-05-01T08:47:53.401Z,65.42
2023-05-01T08:48:53.344Z,63.00
2023-05-01T08:49:53.355Z,61.23
2023-05-01T08:50:53.322Z,62.52
2023-05-01T08:51:53.324Z,63.49
2023-05-01T08:52:54.302Z,63.33
2023-05-01T08:53:53.299Z,61.71
2023-05-01T08:54:53.290Z,63.49
2023-05-01T08:55:53.366Z,63.33
2023-05-01T08:56:53.284Z,62.52
2023-05-01T08:57:53.275Z,63.65
2023-05-01T08:58:53.249Z,63.65
2023-05-01T08:59:53.254Z,62.52
2023-05-01T09:00:53.274Z,62.36
2023-05-01T09:01:53.298Z,62.36
2023-05-01T09:02:53.238Z,62.84
2023-05-01T09:03:53.247Z,60.91
2023-05-01T09:04:53.194Z,63.49
2023-05-01T09:05:53.186Z,61.23
2023-05-01T09:06:53.219Z,62.04
2023-05-01T09:07:53.156Z,61.71
2023-05-01T09:08:53.144Z,60.42
2023-05-01T09:09:53.231Z,59.94
2023-05-01T09:10:53.131Z,59.94
2023-05-01T09:11:53.146Z,59.94
2023-05-01T09:12:53.100Z,61.23
2023-05-01T09:13:53.102Z,61.39
2023-05-01T09:14:53.094Z,63.16
2023-05-01T09:15:53.130Z,61.87
2023-05-01T09:16:53.134Z,60.59
2023-05-01T09:17:53.074Z,60.42
2023-05-01T09:18:53.045Z,60.59
2023-05-01T09:19:53.035Z,60.59
2023-05-01T09:20:53.045Z,61.39
2023-05-01T09:21:53.027Z,60.91
2023-05-01T09:22:53.002Z,60.59
2023-05-01T09:23:52.985Z,60.42
2023-05-01T09:24:52.976Z,60.59
2023-05-01T09:25:52.972Z,60.26
2023-05-01T09:26:52.968Z,61.23
2023-05-01T09:27:52.951Z,61.23
2023-05-01T09:28:52.952Z,61.23
2023-05-01T09:29:52.943Z,59.94
2023-05-01T09:30:52.928Z,61.39
2023-05-01T09:31:53.054Z,64.29
2023-05-01T09:32:52.951Z,60.59
2023-05-01T09:33:52.894Z,60.75
2023-05-01T09:34:52.887Z,60.75
2023-05-01T09:35:52.878Z,60.59
2023-05-01T09:36:52.880Z,60.26
2023-05-01T09:37:52.861Z,61.71
2023-05-01T09:38:52.845Z,62.20
2023-05-01T09:39:52.838Z,61.07
2023-05-01T09:40:52.824Z,60.26
2023-05-01T09:41:52.829Z,62.20
2023-05-01T09:42:52.827Z,59.46
2023-05-01T09:43:52.821Z,61.55
2023-05-01T09:44:52.794Z,61.39
2023-05-01T09:45:52.831Z,59.94
2023-05-01T09:46:52.777Z,59.78
2023-05-01T09:47:52.792Z,60.42
2023-05-01T09:48:52.757Z,64.29
2023-05-01T09:49:52.755Z,64.29
2023-05-01T09:50:52.737Z,61.55
2023-05-01T09:51:52.743Z,61.71
2023-05-01T09:52:52.716Z,62.84
2023-05-01T09:53:52.704Z,63.81
2023-05-01T09:54:52.716Z,62.84
2023-05-01T09:55:52.683Z,60.75
2023-05-01T09:56:52.688Z,63.16
2023-05-01T09:57:52.673Z,62.84
2023-05-01T09:58:52.662Z,63.00
2023-05-01T09:59:52.658Z,60.26
2023-05-01T10:00:52.702Z,63.49
2023-05-01T10:01:52.801Z,62.52
2023-05-01T10:02:52.739Z,60.91
2023-05-01T10:03:52.680Z,61.23
2023-05-01T10:04:52.608Z,64.29
2023-05-01T10:05:52.588Z,63.49
2023-05-01T10:06:52.629Z,62.04
2023-05-01T10:07:52.581Z,61.07
2023-05-01T10:08:52.593Z,62.20
2023-05-01T10:09:52.568Z,62.20
2023-05-01T10:10:52.537Z,62.36
2023-05-01T10:11:52.556Z,62.20
2023-05-01T10:12:52.523Z,64.13
2023-05-01T10:13:52.513Z,60.75
2023-05-01T10:14:52.542Z,62.20
2023-05-01T10:15:52.493Z,61.55
2023-05-01T10:16:52.693Z,62.36
2023-05-01T10:17:52.607Z,62.36
2023-05-01T10:18:52.466Z,62.52
2023-05-01T10:19:52.455Z,62.68
2023-05-01T10:20:52.457Z,64.94
2023-05-01T10:21:52.437Z,63.81
2023-05-01T10:22:52.424Z,61.55
2023-05-01T10:23:52.438Z,61.39
2023-05-01T10:24:52.575Z,61.39
2023-05-01T10:25:52.484Z,60.26
2023-05-01T10:26:52.395Z,61.07
2023-05-01T10:27:52.371Z,61.87
2023-05-01T10:28:52.361Z,62.04
2023-05-01T10:29:52.359Z,62.36
2023-05-01T10:30:52.374Z,61.39
2023-05-01T10:31:53.523Z,62.20
2023-05-01T10:32:52.346Z,62.68
2023-05-01T10:33:52.436Z,64.29
2023-05-01T10:34:52.296Z,62.84
2023-05-01T10:35:52.300Z,62.36
2023-05-01T10:36:52.297Z,61.39
2023-05-01T10:37:52.280Z,64.13
2023-05-01T10:38:52.322Z,63.81
2023-05-01T10:39:52.259Z,62.68
2023-05-01T10:40:52.257Z,62.20
2023-05-01T10:41:52.252Z,62.20
2023-05-01T10:42:52.233Z,63.00
2023-05-01T10:43:52.223Z,62.84
2023-05-01T10:44:52.236Z,61.55
2023-05-01T10:45:52.235Z,61.39
2023-05-01T10:46:52.217Z,62.20
2023-05-01T10:47:52.213Z,61.87
2023-05-01T10:48:52.392Z,61.71
2023-05-01T10:49:52.156Z,64.13
2023-05-01T10:50:52.150Z,62.52
2023-05-01T10:51:52.477Z,61.55
2023-05-01T10:52:52.134Z,63.65
2023-05-01T10:53:52.118Z,62.04
2023-05-01T10:54:52.137Z,60.75
2023-05-01T10:55:52.111Z,61.39
2023-05-01T10:56:52.254Z,62.68
2023-05-01T10:57:52.092Z,61.71
2023-05-01T10:58:52.084Z,62.04
2023-05-01T10:59:52.059Z,62.68
2023-05-01T11:00:52.051Z,61.23
2023-05-01T11:01:52.218Z,61.71
2023-05-01T11:02:52.094Z,64.13
2023-05-01T11:03:52.028Z,62.52
2023-05-01T11:04:52.176Z,61.07
2023-05-01T11:05:52.007Z,64.61
2023-05-01T11:06:52.027Z,64.13
2023-05-01T11:07:51.991Z,61.71
2023-05-01T11:08:51.976Z,62.68
2023-05-01T11:09:51.971Z,63.33
2023-05-01T11:10:52.013Z,63.16
2023-05-01T11:11:51.971Z,64.13
2023-05-01T11:12:52.167Z,65.10
2023-05-01T11:13:52.116Z,63.00
2023-05-01T11:14:51.985Z,63.33
2023-05-01T11:15:51.969Z,63.00
2023-05-01T11:16:51.947Z,62.52
2023-05-01T11:17:52.036Z,63.49
2023-05-01T11:18:51.989Z,61.55
2023-05-01T11:19:51.895Z,63.16
2023-05-01T11:20:51.860Z,62.68
2023-05-01T11:21:52.061Z,63.16
2023-05-01T11:22:51.850Z,64.61
2023-05-01T11:23:51.827Z,64.61
2023-05-01T11:24:51.816Z,63.16
2023-05-01T11:25:51.807Z,61.87
2023-05-01T11:26:51.803Z,62.52
2023-05-01T11:27:51.803Z,64.13
2023-05-01T11:28:51.780Z,60.59
2023-05-01T11:29:51.933Z,62.36
2023-05-01T11:30:51.766Z,61.23
2023-05-01T11:31:51.785Z,62.84
2023-05-01T11:32:51.885Z,62.52
2023-05-01T11:33:51.739Z,62.20
2023-05-01T11:34:51.719Z,64.78
2023-05-01T11:35:51.712Z,62.52
2023-05-01T11:36:52.305Z,61.07
2023-05-01T11:37:51.705Z,61.87
2023-05-01T11:38:51.743Z,61.87
2023-05-01T11:39:51.686Z,61.87
2023-05-01T11:40:51.674Z,62.36
2023-05-01T11:41:51.694Z,61.71
2023-05-01T11:42:51.665Z,62.84
2023-05-01T11:43:51.647Z,61.23
2023-05-01T11:44:51.626Z,63.33
2023-05-01T11:45:51.689Z,64.78
2023-05-01T11:46:51.609Z,62.68
2023-05-01T11:47:51.723Z,61.87
2023-05-01T11:48:51.593Z,61.71
2023-05-01T11:49:51.579Z,62.36
2023-05-01T11:50:51.581Z,62.04
2023-05-01T11:51:51.571Z,60.59
2023-05-01T11:52:51.566Z,60.10
2023-05-01T11:53:51.676Z,60.75
2023-05-01T11:54:51.534Z,62.68
2023-05-01T11:55:51.635Z,63.33
2023-05-01T11:56:51.513Z,63.00
2023-05-01T11:57:51.525Z,61.71
2023-05-01T11:58:51.498Z,63.65
2023-05-01T11:59:51.489Z,62.36
2023-05-01T12:00:51.564Z,63.49
2023-05-01T12:01:52.508Z,62.04
2023-05-01T12:02:51.652Z,60.75
2023-05-01T12:03:51.509Z,61.39
2023-05-01T12:04:51.581Z,61.23
2023-05-01T12:05:51.431Z,62.36
2023-05-01T12:06:51.546Z,61.71
2023-05-01T12:07:51.430Z,61.55
2023-05-01T12:08:51.424Z,61.87
2023-05-01T12:09:51.393Z,60.91
2023-05-01T12:10:51.382Z,60.91
2023-05-01T12:11:52.536Z,61.07
2023-05-01T12:12:52.387Z,62.04
2023-05-01T12:13:51.354Z,61.23
2023-05-01T12:14:51.342Z,62.84
2023-05-01T12:15:51.351Z,61.07
2023-05-01T12:16:51.347Z,61.07
2023-05-01T12:17:51.372Z,60.75
2023-05-01T12:18:51.379Z,60.91
2023-05-01T12:19:51.309Z,59.46
2023-05-01T12:20:51.351Z,60.10
2023-05-01T12:21:51.277Z,60.75
2023-05-01T12:22:51.279Z,62.84
2023-05-01T12:23:51.304Z,61.71
2023-05-01T12:24:51.256Z,63.49
2023-05-01T12:25:51.244Z,62.20
2023-05-01T12:26:51.309Z,63.97
2023-05-01T12:27:52.249Z,63.49
2023-05-01T12:28:51.214Z,62.52
2023-05-01T12:29:51.197Z,62.04
2023-05-01T12:30:51.193Z,63.65
2023-05-01T12:31:51.248Z,63.00
2023-05-01T12:32:51.229Z,63.65
2023-05-01T12:33:51.182Z,61.39
2023-05-01T12:34:51.152Z,61.55
2023-05-01T12:35:51.161Z,63.97
2023-05-01T12:36:51.135Z,63.81
2023-05-01T12:37:51.130Z,65.26
2023-05-01T12:38:51.107Z,65.26
2023-05-01T12:39:51.129Z,63.16
2023-05-01T12:40:51.091Z,62.84
2023-05-01T12:41:51.183Z,63.16
2023-05-01T12:42:51.096Z,62.20
2023-05-01T12:43:51.068Z,63.16
2023-05-01T12:44:51.050Z,62.68
2023-05-01T12:45:51.046Z,60.10
2023-05-01T12:46:51.184Z,62.04
2023-05-01T12:47:51.253Z,63.65
2023-05-01T12:48:52.402Z,64.78
2023-05-01T12:49:51.006Z,63.49
2023-05-01T12:50:51.598Z,62.52
2023-05-01T12:51:52.069Z,62.20
2023-05-01T12:52:51.021Z,63.81